Home > Products > Valid Products > TAF

000
FTUS42 KCHS 301100
TAFSAV
TAF
KSAV 301138Z 3012/3112 34005KT P6SM SCT025 BKN080
     FM301500 36007KT P6SM BKN035
     FM302300 36005KT P6SM SCT045=



000
FTUS42 KCHS 301100
TAFCHS
TAF
KCHS 301138Z 3012/3112 02009KT P6SM SCT008 BKN080
     FM301500 01008KT P6SM BKN045
     FM302300 01006KT P6SM SCT045=



000
FTUS42 KCHS 301000 AAC
TAFCHS
TAF AMD
KCHS 301001Z 3010/3106 36008KT P6SM SCT008 BKN080
      TEMPO 3010/3012 BKN008
     FM301400 02010KT P6SM SCT025 SCT035
     FM302300 03006KT P6SM SCT030=



000
FTUS42 KCHS 300900 AAA
TAFSAV
TAF AMD
KSAV 300932Z 3010/3106 33004KT P6SM SCT025 BKN080
     FM301400 36008KT P6SM SCT020 BKN035
     FM302300 02005KT P6SM SCT020=



000
FTUS42 KCHS 300900 AAB
TAFCHS
TAF AMD
KCHS 300931Z 3010/3106 36009KT P6SM SCT008 SCT025
      TEMPO 3010/3012 SCT008 BKN015
     FM301400 02010KT P6SM SCT025 SCT035
     FM302300 03006KT P6SM SCT030=



000
FTUS42 KCHS 300800 AAA
TAFCHS
TAF AMD
KCHS 300831Z 3009/3106 31005KT P6SM SCT025 OVC050
     FM300930 36007KT P6SM SCT009 OVC015
     FM301400 02010KT P6SM SCT025 SCT035
     FM302300 03006KT P6SM SCT030=



000
FTUS42 KCHS 300500
TAFSAV
TAF
KSAV 300539Z 3006/3106 22004KT P6SM SCT025 OVC050
     FM301000 33005KT P6SM SCT009 OVC015
     FM301400 36008KT P6SM SCT020 BKN035
     FM302300 02005KT P6SM SCT020=



000
FTUS42 KCHS 300500
TAFCHS
TAF
KCHS 300539Z 3006/3106 31005KT P6SM VCSH SCT025 OVC050
     FM300900 36007KT P6SM SCT009 OVC015
     FM301400 02010KT P6SM SCT025 SCT035
     FM302300 03006KT P6SM SCT030=



000
FTUS42 KCHS 292300
TAFCHS
TAF
KCHS 292320Z 3000/3024 21005KT P6SM FEW050 BKN120
     FM300500 VRB05KT P6SM VCSH SCT025 OVC050
      TEMPO 3006/3009 5SM -SHRA BR SCT010 BKN020
     FM300900 36007KT P6SM SCT009 OVC015
     FM301400 02010KT P6SM SCT020 BKN035=



000
FTUS42 KCHS 292300
TAFSAV
TAF
KSAV 292320Z 3000/3024 20004KT P6SM FEW050 BKN120
     FM300500 VRB03KT P6SM VCSH SCT025 OVC050
     FM301000 33005KT P6SM SCT009 OVC015
     FM301400 36008KT P6SM SCT020 BKN035=



000
FTUS42 KCHS 292000 AAA
TAFCHS
TAF AMD
KCHS 292006Z 2920/3018 25010KT P6SM SCT040 BKN200
     FM300000 22005KT P6SM SCT040 BKN090
     FM300300 VRB04KT P6SM VCSH SCT025 OVC050
      TEMPO 3005/3009 5SM -SHRA BR SCT012 BKN020
     FM300900 35007KT P6SM VCSH SCT012 OVC020
     FM301400 02010KT P6SM SCT020 BKN035=



000
FTUS42 KCHS 291700
TAFCHS
TAF
KCHS 291730Z 2918/3018 25010KT P6SM SCT040 BKN200
     FM300000 22005KT P6SM SCT040 BKN090
     FM300300 VRB04KT P6SM VCSH SCT025 OVC050
     FM300900 35007KT P6SM VCSH SCT012 OVC020
     FM301400 02010KT P6SM SCT020 BKN035=



000
FTUS42 KCHS 291700
TAFSAV
TAF
KSAV 291730Z 2918/3018 25009KT P6SM SCT050 BKN200
     FM292300 21006KT P6SM SCT040 BKN080
     FM300300 VRB03KT P6SM VCSH SCT025 OVC050
     FM301000 33005KT P6SM SCT012 OVC020
     FM301400 36008KT P6SM SCT020 BKN035=



000
FTUS42 KCHS 291300 AAC
TAFCHS
TAF AMD
KCHS 291307Z 2913/3012 25007KT 6SM BR SCT005 SCT060 BKN200
     FM291330 24010KT P6SM SCT050 BKN200
     FM300000 VRB05KT P6SM SCT012 BKN030=



000
FTUS42 KCHS 291200 AAB
TAFSAV
TAF AMD
KSAV 291251Z 2913/3012 25004KT 6SM BR SCT004 SCT050 BKN200
     FM291430 25008KT P6SM SCT050 BKN200
     FM300000 VRB04KT P6SM SCT012 BKN030=



000
FTUS42 KCHS 291200 AAB
TAFCHS
TAF AMD
KCHS 291248Z 2913/3012 26005KT 2SM BR OVC004
     FM291400 25007KT 5SM BR SCT005 SCT060 BKN200
     FM291430 24010KT P6SM SCT050 BKN200
     FM300000 VRB05KT P6SM SCT012 BKN030=



000
FTUS42 KCHS 291100 AAA
TAFSAV
TAF AMD
KSAV 291153Z 2912/3012 25004KT 3SM MIFG SCT250
      TEMPO 2912/2913 1/2SM FG BKN003
     FM291330 25008KT P6SM SCT050 BKN200
     FM300000 VRB04KT P6SM SCT012 BKN030=



000
FTUS42 KCHS 291100 AAA
TAFCHS
TAF AMD
KCHS 291146Z 2912/3012 24005KT 3SM MIFG SCT200
      TEMPO 2912/2913 1/2SM FG BKN001
     FM291330 24010KT P6SM SCT050 BKN200
     FM300000 VRB05KT P6SM SCT012 BKN030=



000
FTUS42 KCHS 291100
TAFCHS
TAF
KCHS 291129Z 2912/3012 24005KT 6SM MIFG SCT200
      TEMPO 2912/2913 2SM BR
     FM291400 24010KT P6SM SCT050 BKN200
     FM300000 VRB05KT P6SM SCT012 BKN030=



000
FTUS42 KCHS 291100
TAFSAV
TAF
KSAV 291129Z 2912/3012 25004KT 6SM MIFG SCT250
     FM291400 25008KT P6SM SCT050 BKN200
     FM300000 VRB04KT P6SM SCT012 BKN030=



000
FTUS42 KCHS 290500
TAFCHS
TAF
KCHS 290534Z 2906/3006 21005KT 6SM MIFG SCT250
     FM291400 24010KT P6SM SCT045 BKN250=



000
FTUS42 KCHS 290500
TAFSAV
TAF
KSAV 290534Z 2906/3006 22004KT 6SM MIFG SCT250
     FM291300 24008KT P6SM SCT045 BKN250=



000
FTUS42 KCHS 282300
TAFSAV
TAF
KSAV 282320Z 2900/2924 19004KT P6SM SCT250
     FM290900 VRB03KT 4SM BR SCT003 SCT040
     FM291300 24008KT P6SM SCT045 BKN250=



000
FTUS42 KCHS 282300
TAFCHS
TAF
KCHS 282320Z 2900/2924 20005KT P6SM SCT250
     FM290400 20005KT 6SM MIFG SCT250
     FM290800 23003KT 3SM BR SCT002 SCT045
     FM291400 24010KT P6SM SCT045 BKN250=



000
FTUS42 KCHS 281800 AAA
TAFSAV
TAF AMD
KSAV 281848Z 2819/2918 23007KT P6SM FEW035
     FM290100 17005KT P6SM SCT250
     FM290900 VRB03KT 4SM BR SCT003 SCT040
     FM291400 24008KT P6SM SCT045 BKN250=



000
FTUS42 KCHS 281700
TAFSAV
TAF
KSAV 281728Z 2818/2918 21007KT P6SM FEW035
     FM290100 17005KT P6SM SCT250
     FM290900 VRB03KT 4SM BR SCT003 SCT040
     FM291400 24008KT P6SM SCT045 BKN250=



000
FTUS42 KCHS 281700
TAFCHS
TAF
KCHS 281728Z 2818/2918 21010KT P6SM FEW035
     FM290200 20005KT P6SM MIFG SCT250
     FM290800 23003KT 2SM BR BCFG SCT002 SCT040
     FM291400 24010KT P6SM SCT045 BKN250=



000
FTUS42 KCHS 281400 AAB
TAFSAV
TAF AMD
KSAV 281420Z 2814/2912 20006KT P6SM FEW040
     FM290000 17003KT P6SM SCT250
     FM290700 20002KT 5SM BR SCT002=



000
FTUS42 KCHS 281400 AAB
TAFCHS
TAF AMD
KCHS 281419Z 2814/2912 21006KT 6SM BR SCT003
     FM281500 21007KT P6SM SKC
     FM290700 20003KT 5SM BR SCT003=



000
FTUS42 KCHS 281300 CCA
TAFCHS
TAF COR
KCHS 281306Z 2813/2912 00000KT 1/4SM FG VV001
     FM281400 22004KT 2SM BR BKN003
     FM281430 22005KT 5SM BR SCT005
     FM281500 21007KT P6SM SKC
     FM290700 20003KT 5SM BR SCT003=



000
FTUS42 KCHS 281300 AAA
TAFSAV
TAF AMD
KSAV 281303Z 2813/2912 00000KT P6SM SKC
      TEMPO 2813/2814 5SM BR FEW002
     FM281400 20006KT P6SM FEW040
     FM290000 17003KT P6SM SCT250
     FM290700 20002KT 5SM BR SCT002=



000
FTUS42 KCHS 281300 AAA
TAFCHS
TAF AMD
KCHS 281300Z 2813/2912 00000KT 1/4SM FG VV001
     FM281330 22004KT 2SM BR BKN003
     FM281400 22005KT 5SM BR SCT005
     FM281430 21007KT P6SM SKC
     FM290700 20003KT 5SM BR SCT003=



000
FTUS42 KCHS 281100
TAFCHS
TAF
KCHS 281125Z 2812/2912 VRB03KT 1/4SM FG VV001
     FM281400 22005KT 3SM BR BKN004
     FM281500 21007KT P6SM FEW250
     FM290700 20003KT 5SM BR SCT003=



000
FTUS42 KCHS 281100
TAFSAV
TAF
KSAV 281125Z 2812/2912 00000KT 4SM BR SCT002
     FM281400 20006KT P6SM FEW040
     FM290000 17003KT P6SM SCT250
     FM290700 20002KT 5SM BR SCT002=



000
FTUS42 KCHS 281000 AAC
TAFSAV
TAF AMD
KSAV 281053Z 2811/2906 00000KT 6SM BR FEW002
      TEMPO 2811/2813 3SM BR SCT001
     FM281400 20006KT P6SM FEW040
     FM290000 17003KT P6SM SCT010=



000
FTUS42 KCHS 280900 CCA
TAFSAV
TAF COR
KSAV 280914Z 2809/2906 00000KT 4SM BR FEW002
      TEMPO 2809/2813 1SM BR SCT001
     FM281400 20006KT P6SM FEW040
     FM290000 17003KT P6SM SCT010=



000
FTUS42 KCHS 280900 AAB
TAFSAV
TAF AMD
KSAV 280906Z 2809/2906 00000KT 6SM BR FEW002
      TEMPO 2811/2813 2SM BR SCT001
     FM281400 20006KT P6SM FEW040
     FM290000 17003KT P6SM SCT010=



000
FTUS42 KCHS 280800 AAA
TAFSAV
TAF AMD
KSAV 280833Z 2809/2906 00000KT 3/4SM BR VV002
      TEMPO 2809/2813 1/4SM FG VV001
     FM281300 22005KT 3SM BR BKN004
     FM281500 20006KT P6SM FEW040
     FM290000 17003KT P6SM SCT010=



000
FTUS42 KCHS 280500
TAFSAV
TAF
KSAV 280535Z 2806/2906 00000KT 1/4SM FG VV001
      TEMPO 2810/2814 1SM BR BKN002
     FM281400 22005KT 3SM BR BKN004
     FM281500 20006KT P6SM FEW040
     FM290000 17003KT P6SM SCT010=



000
FTUS42 KCHS 280500
TAFCHS
TAF
KCHS 280535Z 2806/2906 VRB03KT 1/4SM FG VV001
      TEMPO 2810/2814 1SM BR BKN002
     FM281400 22005KT 3SM BR BKN004
     FM281500 21007KT P6SM FEW250
     FM290000 20004KT P6SM SCT010=



000
FTUS42 KCHS 280200 AAC
TAFCHS
TAF AMD
KCHS 280253Z 2803/2824 VRB03KT 1/4SM FG VV001
     FM280900 00000KT 2SM BR FEW005
      TEMPO 2810/2812 1SM BR SCT003
     FM281400 21006KT P6SM FEW030=



000
FTUS42 KCHS 280100 AAB
TAFCHS
TAF AMD
KCHS 280212Z 2802/2824 VRB03KT 2SM BR SCT003
      TEMPO 2802/2804 1SM BR BKN002
     FM280400 00000KT 4SM BR SCT002
     FM280900 00000KT 2SM BR FEW005
      TEMPO 2810/2812 1SM BR SCT003
     FM281400 21006KT P6SM FEW030=



000
FTUS42 KCHS 280000 AAA
TAFCHS
TAF AMD
KCHS 280050Z 2801/2824 VRB03KT P6SM SCT003
      TEMPO 2801/2803 5SM BR BKN003
     FM280900 00000KT 3SM BR FEW005
      TEMPO 2810/2812 2SM BR SCT003
     FM281400 21006KT P6SM FEW030=



000
FTUS42 KCHS 272300
TAFCHS
TAF
KCHS 272323Z 2800/2824 VRB03KT P6SM SKC
     FM280900 00000KT 3SM BR FEW005
      TEMPO 2810/2812 2SM BR SCT003
     FM281400 21006KT P6SM FEW030=



000
FTUS42 KCHS 272300
TAFSAV
TAF
KSAV 272323Z 2800/2824 00000KT P6SM SKC
     FM280800 00000KT 3SM BR SCT005
      TEMPO 2810/2812 1 1/2SM BR SCT002
     FM281430 20005KT P6SM FEW030=



000
FTUS42 KCHS 271900 AAA
TAFCHS
TAF AMD
KCHS 271913Z 2719/2818 15006KT P6SM SKC
     FM280000 00000KT P6SM SKC
     FM280800 00000KT 3SM BR BCFG FEW002
     FM281430 21006KT P6SM FEW030=



000
FTUS42 KCHS 271700
TAFSAV
TAF
KSAV 271724Z 2718/2818 VRB03KT P6SM SKC
     FM280800 00000KT 3SM BR BCFG FEW002
     FM281430 20005KT P6SM FEW030=



000
FTUS42 KCHS 271700
TAFCHS
TAF
KCHS 271724Z 2718/2818 VRB03KT P6SM SKC
     FM280800 00000KT 3SM BR BCFG FEW002
     FM281430 21006KT P6SM FEW030=



    US Dept of Commerce
    National Oceanic and Atmospheric Administration
    National Weather Service
    1325 East West Highway
    Silver Spring, MD 20910
    Page Author: NWS Internet Services Team
Disclaimer
Information Quality
Credits
Glossary
Privacy Policy
Freedom of Information Act (FOIA)
About Us
Career Opportunities